createdAt,value
2023-10-09T00:00:16.815Z,60
2023-10-09T00:05:19.867Z,60
2023-10-09T00:10:18.069Z,60
2023-10-09T00:15:14.779Z,59
2023-10-09T00:20:14.428Z,59
2023-10-09T00:25:15.100Z,59
2023-10-09T00:30:23.785Z,59
2023-10-09T00:35:15.676Z,59
2023-10-09T00:40:20.588Z,59
2023-10-09T00:45:17.176Z,59
2023-10-09T00:50:16.388Z,59
2023-10-09T00:55:16.397Z,58
2023-10-09T01:00:17.134Z,59
2023-10-09T01:05:16.226Z,59
2023-10-09T01:10:16.545Z,59
2023-10-09T01:15:14.990Z,59
2023-10-09T01:20:22.371Z,59
2023-10-09T01:25:14.818Z,59
2023-10-09T01:30:18.575Z,59
2023-10-09T01:35:16.593Z,58
2023-10-09T01:40:14.997Z,58
2023-10-09T01:45:17.475Z,58
2023-10-09T01:50:20.766Z,58
2023-10-09T01:55:15.025Z,59
2023-10-09T02:00:16.916Z,59
2023-10-09T02:05:14.006Z,59
2023-10-09T02:10:26.395Z,59
2023-10-09T02:15:22.702Z,59
2023-10-09T02:20:18.625Z,57
2023-10-09T02:25:21.030Z,59
2023-10-09T02:30:18.115Z,59
2023-10-09T02:35:14.367Z,59
2023-10-09T02:40:15.044Z,59
2023-10-09T02:45:19.012Z,57
2023-10-09T02:50:20.200Z,57
2023-10-09T02:55:22.396Z,58
2023-10-09T03:00:17.141Z,58
2023-10-09T03:05:16.129Z,58
2023-10-09T03:10:14.565Z,58
2023-10-09T03:15:14.091Z,58
2023-10-09T03:20:16.961Z,58
2023-10-09T03:25:19.880Z,58
2023-10-09T03:30:18.700Z,58
2023-10-09T03:35:18.670Z,58
2023-10-09T03:40:15.091Z,59
2023-10-09T03:45:18.717Z,58
2023-10-09T03:50:13.921Z,58
2023-10-09T03:55:14.254Z,58
2023-10-09T04:00:19.257Z,58
2023-10-09T04:05:20.099Z,59
2023-10-09T04:10:14.284Z,58
2023-10-09T04:15:17.130Z,57
2023-10-09T04:20:14.628Z,58
2023-10-09T04:25:14.111Z,58
2023-10-09T04:30:17.006Z,58
2023-10-09T04:35:14.290Z,58
2023-10-09T04:40:16.737Z,58
2023-10-09T04:45:20.421Z,60
2023-10-09T04:50:27.597Z,59
2023-10-09T04:55:24.493Z,59
2023-10-09T05:00:19.463Z,59
2023-10-09T05:05:14.491Z,58
2023-10-09T05:10:13.711Z,59
2023-10-09T05:15:16.626Z,59
2023-10-09T05:20:16.833Z,59
2023-10-09T05:25:16.273Z,58
2023-10-09T05:30:14.869Z,59
2023-10-09T05:35:14.516Z,59
2023-10-09T05:40:18.344Z,59
2023-10-09T05:45:17.158Z,59
2023-10-09T05:50:14.361Z,59
2023-10-09T05:55:18.533Z,59
2023-10-09T06:00:18.685Z,59
2023-10-09T06:05:18.932Z,59
2023-10-09T06:10:16.318Z,57
2023-10-09T06:15:23.032Z,58
2023-10-09T06:20:18.184Z,58
2023-10-09T06:25:22.196Z,58
2023-10-09T06:30:18.661Z,58
2023-10-09T06:35:18.849Z,59
2023-10-09T06:40:13.791Z,58
2023-10-09T06:45:20.717Z,58
2023-10-09T06:50:16.855Z,58
2023-10-09T06:55:16.346Z,58
2023-10-09T07:00:29.892Z,58
2023-10-09T07:05:16.876Z,59
2023-10-09T07:10:21.930Z,59
2023-10-09T07:15:16.599Z,59
2023-10-09T07:20:16.721Z,59
2023-10-09T07:25:15.786Z,60
2023-10-09T07:30:16.306Z,60
2023-10-09T07:35:18.444Z,60
2023-10-09T07:40:20.633Z,60
2023-10-09T07:45:21.094Z,60
2023-10-09T07:50:16.536Z,60
2023-10-09T07:55:17.363Z,60
2023-10-09T08:00:20.742Z,60
2023-10-09T08:05:20.577Z,60
2023-10-09T08:10:16.541Z,60
2023-10-09T08:15:14.700Z,60
2023-10-09T08:20:16.378Z,60
2023-10-09T08:25:18.683Z,60
2023-10-09T08:30:14.983Z,60
2023-10-09T08:35:16.287Z,60
2023-10-09T08:40:14.810Z,59
2023-10-09T08:45:17.955Z,60
2023-10-09T08:50:20.457Z,59
2023-10-09T08:55:22.579Z,60
2023-10-09T09:00:18.535Z,60
2023-10-09T09:05:15.055Z,60
2023-10-09T09:10:16.440Z,60
2023-10-09T09:15:22.706Z,60
2023-10-09T09:20:18.945Z,60
2023-10-09T09:25:17.886Z,61
2023-10-09T09:30:22.144Z,60
2023-10-09T09:35:18.534Z,60
2023-10-09T09:40:18.541Z,59
2023-10-09T09:45:19.188Z,60
2023-10-09T09:50:16.814Z,60
2023-10-09T09:55:19.621Z,60
2023-10-09T10:00:16.655Z,60
2023-10-09T10:05:14.871Z,60
2023-10-09T10:10:18.121Z,59
2023-10-09T10:17:12.314Z,60
2023-10-09T10:20:56.554Z,59
2023-10-09T10:25:20.027Z,59
2023-10-09T10:30:14.444Z,60
2023-10-09T10:35:15.597Z,60
2023-10-09T10:40:16.250Z,60
2023-10-09T10:45:14.601Z,60
2023-10-09T10:50:16.793Z,59
2023-10-09T10:55:22.053Z,59
2023-10-09T11:00:14.954Z,58
2023-10-09T11:05:17.780Z,57
2023-10-09T11:10:14.446Z,58
2023-10-09T11:15:13.723Z,58
2023-10-09T11:20:16.742Z,57
2023-10-09T11:25:18.762Z,58
2023-10-09T11:30:14.009Z,58
2023-10-09T11:35:14.628Z,58
2023-10-09T11:40:18.470Z,58
2023-10-09T11:45:14.989Z,58
2023-10-09T11:50:15.327Z,58
2023-10-09T11:55:22.847Z,58
2023-10-09T12:00:17.775Z,58
2023-10-09T12:05:15.120Z,56
2023-10-09T12:10:18.677Z,57
2023-10-09T12:15:16.607Z,57
2023-10-09T12:20:24.033Z,57
2023-10-09T12:25:21.944Z,58
2023-10-09T12:30:14.075Z,58
2023-10-09T12:35:16.814Z,57
2023-10-09T12:40:18.368Z,57
2023-10-09T12:45:14.706Z,58
2023-10-09T12:50:16.445Z,58
2023-10-09T12:55:17.165Z,58
2023-10-09T13:00:21.081Z,59
2023-10-09T13:05:20.928Z,59
2023-10-09T13:10:16.824Z,59
2023-10-09T13:15:18.170Z,59
2023-10-09T13:20:20.793Z,59
2023-10-09T13:25:35.296Z,59
2023-10-09T13:30:18.970Z,59
2023-10-09T13:35:18.248Z,59
2023-10-09T13:40:18.400Z,58
2023-10-09T13:45:18.847Z,58
2023-10-09T13:50:18.532Z,58
2023-10-09T13:55:16.864Z,58
2023-10-09T14:00:26.003Z,58
2023-10-09T14:05:23.207Z,58
2023-10-09T14:10:16.347Z,57
2023-10-09T14:15:14.432Z,58
2023-10-09T14:20:16.563Z,57
2023-10-09T14:25:14.956Z,58
2023-10-09T14:30:18.274Z,58
2023-10-09T14:35:19.652Z,58
2023-10-09T14:40:16.706Z,57
2023-10-09T14:45:17.527Z,58
2023-10-09T14:50:15.504Z,59
2023-10-09T14:55:18.572Z,59
2023-10-09T15:00:18.811Z,58
2023-10-09T15:05:14.854Z,59
2023-10-09T15:10:16.169Z,59
2023-10-09T15:15:14.645Z,58
2023-10-09T15:20:16.834Z,58
2023-10-09T15:25:16.671Z,59
2023-10-09T15:30:16.001Z,58
2023-10-09T15:35:20.457Z,59
2023-10-09T15:40:16.840Z,59
2023-10-09T15:45:16.196Z,60
2023-10-09T15:50:21.246Z,60
2023-10-09T15:55:18.292Z,60
2023-10-09T16:00:22.766Z,60
2023-10-09T16:05:15.364Z,60
2023-10-09T16:10:20.588Z,62
2023-10-09T16:15:21.596Z,64
2023-10-09T16:20:14.299Z,62
2023-10-09T16:25:16.448Z,63
2023-10-09T16:30:14.871Z,62
2023-10-09T16:35:18.592Z,62
2023-10-09T16:40:17.144Z,62
2023-10-09T16:45:18.065Z,63
2023-10-09T16:50:20.178Z,62
2023-10-09T16:55:17.506Z,63
2023-10-09T17:00:16.415Z,62
2023-10-09T17:05:16.260Z,62
2023-10-09T17:10:14.729Z,63
2023-10-09T17:15:28.144Z,62
2023-10-09T17:20:18.598Z,62
2023-10-09T17:25:18.838Z,63
2023-10-09T17:30:14.293Z,62
2023-10-09T17:35:15.181Z,62
2023-10-09T17:40:14.746Z,62
2023-10-09T17:45:18.890Z,62
2023-10-09T17:50:18.389Z,62
2023-10-09T17:55:18.422Z,63
2023-10-09T18:00:22.906Z,62
2023-10-09T18:05:16.324Z,62
2023-10-09T18:10:16.479Z,62
2023-10-09T18:15:20.611Z,62
2023-10-09T18:20:17.172Z,62
2023-10-09T18:25:16.314Z,62
2023-10-09T18:30:20.757Z,62
2023-10-09T18:35:15.013Z,62
2023-10-09T18:40:16.508Z,62
2023-10-09T18:45:16.689Z,61
2023-10-09T18:50:15.343Z,62
2023-10-09T18:55:21.034Z,62
2023-10-09T19:00:18.113Z,62
2023-10-09T19:05:14.762Z,62
2023-10-09T19:10:20.029Z,61
2023-10-09T19:15:14.125Z,62
2023-10-09T19:20:27.719Z,62
2023-10-09T19:25:25.665Z,62
2023-10-09T19:30:21.001Z,62
2023-10-09T19:35:24.901Z,62
2023-10-09T19:40:20.132Z,62
2023-10-09T19:45:14.298Z,61
2023-10-09T19:50:15.928Z,62
2023-10-09T19:55:28.256Z,61
2023-10-09T20:00:23.023Z,62
2023-10-09T20:05:17.384Z,62
2023-10-09T20:10:16.979Z,62
2023-10-09T20:15:18.277Z,61
2023-10-09T20:20:17.029Z,61
2023-10-09T20:25:18.121Z,61
2023-10-09T20:30:22.102Z,61
2023-10-09T20:35:28.631Z,61
2023-10-09T20:40:17.014Z,61
2023-10-09T20:45:16.442Z,61
2023-10-09T20:50:15.447Z,61
2023-10-09T20:55:21.156Z,61
2023-10-09T21:00:16.627Z,60
2023-10-09T21:05:17.454Z,60
2023-10-09T21:10:18.809Z,59
2023-10-09T21:15:16.304Z,59
2023-10-09T21:20:14.793Z,58
2023-10-09T21:25:23.069Z,60
2023-10-09T21:30:20.171Z,60
2023-10-09T21:35:16.810Z,60
2023-10-09T21:40:24.024Z,60
2023-10-09T21:45:16.659Z,60
2023-10-09T21:50:17.398Z,60
2023-10-09T21:55:18.624Z,60
2023-10-09T22:00:18.866Z,60
2023-10-09T22:05:24.323Z,60
2023-10-09T22:10:20.564Z,60
2023-10-09T22:15:22.526Z,60
2023-10-09T22:20:18.877Z,60
2023-10-09T22:25:16.031Z,60
2023-10-09T22:30:16.688Z,60
2023-10-09T22:35:21.278Z,59
2023-10-09T22:40:18.520Z,59
2023-10-09T22:45:18.656Z,60
2023-10-09T22:50:21.427Z,60
2023-10-09T22:55:22.277Z,60
2023-10-09T23:00:16.564Z,60
2023-10-09T23:05:19.504Z,60
2023-10-09T23:10:28.660Z,60
2023-10-09T23:15:19.160Z,60
2023-10-09T23:20:22.754Z,60
2023-10-09T23:25:16.738Z,60
2023-10-09T23:30:15.228Z,60
2023-10-09T23:35:28.850Z,60
2023-10-09T23:40:28.987Z,59
2023-10-09T23:45:19.926Z,60
2023-10-09T23:50:16.622Z,60
2023-10-09T23:55:15.583Z,60
